Time;durP1;ratioP1;P1;durP2;ratioP2;P2;SDS_P1;SDS_P2;PMS_P1;PMS_P2;Temp;Humidity;BMP_temperature;BMP_pressure;BME280_temperature;BME280_humidity;BME280_pressure;Samples;Min_cycle;Max_cycle;Signal;HPM_P1;HPM_P2
2022/04/24 00:01:38;;;;;;;32.60;16.58;;;9.30;99.90;;;;;;5096405;28;20028;-89
2022/04/24 00:04:04;;;;;;;24.67;17.13;;;9.30;99.90;;;;;;5096346;28;20046;-88
2022/04/24 00:06:32;;;;;;;22.05;13.95;;;9.30;99.90;;;;;;5096571;28;20024;-88
2022/04/24 00:08:58;;;;;;;19.67;13.23;;;9.40;99.90;;;;;;5096657;28;20533;-88
2022/04/24 00:11:24;;;;;;;22.17;13.80;;;9.40;99.90;;;;;;5096325;28;20029;-88
2022/04/24 00:13:49;;;;;;;22.15;13.48;;;9.40;99.90;;;;;;5096530;28;20123;-88
2022/04/24 00:16:15;;;;;;;18.17;12.13;;;9.40;99.90;;;;;;5096391;28;20051;-88
2022/04/24 00:18:41;;;;;;;35.42;14.27;;;9.50;99.90;;;;;;5096123;28;20118;-88
2022/04/24 00:21:08;;;;;;;39.03;14.30;;;9.50;99.90;;;;;;5096386;28;20058;-88
2022/04/24 00:23:33;;;;;;;48.83;17.10;;;9.50;99.90;;;;;;5096222;28;20023;-89
2022/04/24 00:25:59;;;;;;;56.55;16.98;;;9.60;99.90;;;;;;5096226;28;20532;-88
2022/04/24 00:28:25;;;;;;;59.25;18.23;;;9.60;99.90;;;;;;5095933;28;20019;-88
2022/04/24 00:30:51;;;;;;;51.53;16.30;;;9.60;99.90;;;;;;5097968;28;20111;-89
2022/04/24 00:33:17;;;;;;;42.15;14.73;;;9.70;99.90;;;;;;5117933;28;20470;-88
2022/04/24 00:35:42;;;;;;;33.25;14.07;;;9.70;99.90;;;;;;5099700;28;20561;-88
2022/04/24 00:38:08;;;;;;;30.80;13.10;;;9.70;99.90;;;;;;5099905;28;20035;-88
2022/04/24 00:40:34;;;;;;;29.42;11.88;;;9.70;99.90;;;;;;5117837;28;20019;-88
2022/04/24 00:43:00;;;;;;;22.30;12.05;;;9.70;99.90;;;;;;5099555;28;20028;-88
2022/04/24 00:45:25;;;;;;;19.80;11.13;;;9.80;99.90;;;;;;5099666;28;20080;-88
2022/04/24 00:47:51;;;;;;;18.02;11.15;;;9.80;99.90;;;;;;5099759;28;20019;-88
2022/04/24 00:50:18;;;;;;;15.20;11.45;;;9.80;99.90;;;;;;5117368;28;20024;-88
2022/04/24 00:52:45;;;;;;;14.23;11.13;;;9.80;99.90;;;;;;5117587;28;20031;-88
2022/04/24 00:55:11;;;;;;;14.43;10.43;;;9.80;99.90;;;;;;5099272;28;20034;-89
2022/04/24 00:57:36;;;;;;;16.58;11.02;;;9.80;99.90;;;;;;5117591;28;20024;-90
2022/04/24 01:00:03;;;;;;;12.48;9.82;;;9.80;99.90;;;;;;5099566;28;20500;-89
2022/04/24 01:02:29;;;;;;;15.48;10.43;;;9.80;99.90;;;;;;5099148;28;20059;-89
2022/04/24 01:04:57;;;;;;;12.00;9.05;;;9.70;99.90;;;;;;5099019;28;20027;-89
2022/04/24 01:07:23;;;;;;;12.48;9.70;;;9.70;99.90;;;;;;5099050;28;20020;-88
2022/04/24 01:09:48;;;;;;;17.10;11.15;;;9.70;99.90;;;;;;5099176;28;20023;-89
2022/04/24 01:12:14;;;;;;;16.58;11.13;;;9.70;99.90;;;;;;5099019;28;20089;-88
2022/04/24 01:14:40;;;;;;;20.23;12.98;;;9.70;99.90;;;;;;5099183;28;20061;-88
2022/04/24 01:17:06;;;;;;;19.60;11.88;;;9.70;99.90;;;;;;5116934;28;20034;-88
2022/04/24 01:19:32;;;;;;;15.15;10.63;;;9.70;99.90;;;;;;5098776;28;20061;-88
2022/04/24 01:21:58;;;;;;;13.95;9.90;;;9.70;99.90;;;;;;5098917;28;20023;-89
2022/04/24 01:24:26;;;;;;;12.98;10.27;;;9.70;99.90;;;;;;5098713;28;20501;-88
2022/04/24 01:26:52;;;;;;;17.50;10.98;;;9.70;99.90;;;;;;5098941;28;20428;-88
2022/04/24 01:29:18;;;;;;;12.57;9.30;;;9.70;99.90;;;;;;5098585;28;20043;-88
2022/04/24 01:31:45;;;;;;;12.15;9.15;;;9.70;99.90;;;;;;5098559;28;20160;-89
2022/04/24 01:34:11;;;;;;;13.40;10.88;;;9.70;99.90;;;;;;5098538;28;20032;-88
2022/04/24 01:36:37;;;;;;;13.18;9.20;;;9.70;99.90;;;;;;5116708;28;20024;-89
2022/04/24 01:39:04;;;;;;;15.02;9.30;;;9.70;99.90;;;;;;5098593;28;20030;-89
2022/04/24 01:41:31;;;;;;;15.57;10.88;;;9.70;99.90;;;;;;5097853;28;20031;-88
2022/04/24 01:44:00;;;;;;;14.27;10.10;;;9.70;99.90;;;;;;5098432;28;20024;-88
2022/04/24 01:46:26;;;;;;;13.85;9.38;;;9.70;99.90;;;;;;5098457;28;20042;-88
2022/04/24 01:48:52;;;;;;;12.88;9.60;;;9.70;99.90;;;;;;5098505;28;20453;-88
2022/04/24 01:51:18;;;;;;;17.30;10.70;;;9.80;99.90;;;;;;5098369;28;20022;-88
2022/04/24 01:53:44;;;;;;;16.80;10.80;;;9.80;99.90;;;;;;5098425;28;20027;-88
2022/04/24 01:56:11;;;;;;;14.73;10.55;;;9.80;99.90;;;;;;5098278;28;20050;-89
2022/04/24 01:58:38;;;;;;;15.57;10.63;;;9.80;99.90;;;;;;5098138;28;20035;-88
2022/04/24 02:01:05;;;;;;;14.80;10.10;;;9.80;99.90;;;;;;5098316;28;20042;-88
2022/04/24 02:03:31;;;;;;;14.95;10.20;;;9.80;99.90;;;;;;5098028;28;20030;-88
2022/04/24 02:05:57;;;;;;;18.08;10.05;;;9.80;99.90;;;;;;5098153;28;20019;-88
2022/04/24 02:08:24;;;;;;;16.52;10.15;;;9.80;99.90;;;;;;5097988;28;20016;-88
2022/04/24 02:10:49;;;;;;;15.35;10.38;;;9.80;99.90;;;;;;5116034;28;20061;-88
2022/04/24 02:13:16;;;;;;;16.13;9.85;;;9.80;99.90;;;;;;5097851;28;20035;-88
2022/04/24 02:15:42;;;;;;;19.17;10.90;;;9.80;99.90;;;;;;5098166;28;20118;-88
2022/04/24 02:18:08;;;;;;;18.27;10.00;;;9.80;99.90;;;;;;5098153;28;20051;-88
2022/04/24 02:20:33;;;;;;;29.85;12.00;;;9.80;99.90;;;;;;5097734;28;20561;-88
2022/04/24 02:22:59;;;;;;;29.05;12.90;;;9.70;99.90;;;;;;5097629;28;20028;-88
2022/04/24 02:25:26;;;;;;;27.75;13.48;;;9.60;99.90;;;;;;5097612;28;20024;-88
2022/04/24 02:27:55;;;;;;;27.80;12.30;;;9.60;99.90;;;;;;5097762;28;20023;-88
2022/04/24 02:30:27;;;;;;;36.10;13.65;;;9.50;99.90;;;;;;5115484;28;20039;-88
2022/04/24 02:32:54;;;;;;;29.70;13.82;;;9.40;99.90;;;;;;5097533;28;20381;-88
2022/04/24 02:35:20;;;;;;;36.45;14.50;;;9.30;99.90;;;;;;5115583;28;20056;-88
2022/04/24 02:37:46;;;;;;;28.02;11.85;;;9.30;99.90;;;;;;5097577;28;20073;-88
2022/04/24 02:40:11;;;;;;;30.42;13.35;;;9.20;99.90;;;;;;5097371;28;20110;-89
2022/04/24 02:42:38;;;;;;;25.23;13.30;;;9.20;99.90;;;;;;5097275;28;20028;-88
2022/04/24 02:45:08;;;;;;;20.50;11.52;;;9.20;99.90;;;;;;5097144;28;20104;-88
2022/04/24 02:47:34;;;;;;;17.05;10.73;;;9.20;99.90;;;;;;5115518;28;20031;-88
2022/04/24 02:50:00;;;;;;;18.83;10.48;;;9.30;99.90;;;;;;5097524;28;20454;-88
2022/04/24 02:52:26;;;;;;;17.52;11.02;;;9.20;99.90;;;;;;5097103;28;20051;-88
2022/04/24 02:54:53;;;;;;;16.02;10.55;;;9.20;99.90;;;;;;5096892;28;20062;-88
2022/04/24 02:57:19;;;;;;;14.75;10.63;;;9.20;99.90;;;;;;5097241;28;20066;-88
2022/04/24 02:59:48;;;;;;;19.05;11.48;;;9.20;99.90;;;;;;5097004;28;20028;-88
2022/04/24 03:02:13;;;;;;;14.23;10.50;;;9.20;99.90;;;;;;5097060;28;20425;-88
2022/04/24 03:04:39;;;;;;;15.45;10.70;;;9.20;99.90;;;;;;5115020;28;20019;-89
2022/04/24 03:07:06;;;;;;;13.20;10.75;;;9.20;99.90;;;;;;5097171;28;20022;-88
2022/04/24 03:09:32;;;;;;;12.52;10.40;;;9.20;99.90;;;;;;5097071;28;20059;-88
2022/04/24 03:11:58;;;;;;;16.05;10.60;;;9.30;99.90;;;;;;5096741;28;20024;-88
2022/04/24 03:14:23;;;;;;;14.25;11.00;;;9.30;99.90;;;;;;5114938;28;20024;-88
2022/04/24 03:16:49;;;;;;;12.07;9.43;;;9.30;99.90;;;;;;5096986;28;20016;-88
2022/04/24 03:19:15;;;;;;;13.95;10.52;;;9.40;99.90;;;;;;5097077;28;20024;-88
2022/04/24 03:21:40;;;;;;;15.15;9.93;;;9.50;99.90;;;;;;5097020;28;20363;-88
2022/04/24 03:24:06;;;;;;;12.35;8.95;;;9.50;99.90;;;;;;5096827;28;20466;-88
2022/04/24 03:26:32;;;;;;;12.05;9.30;;;9.50;99.90;;;;;;5096578;28;20106;-88
2022/04/24 03:28:58;;;;;;;13.55;10.07;;;9.50;99.90;;;;;;5096660;28;20434;-88
2022/04/24 03:31:24;;;;;;;13.27;9.45;;;9.50;99.90;;;;;;5115131;28;20020;-88
2022/04/24 03:33:52;;;;;;;16.33;10.90;;;9.60;99.90;;;;;;5096590;28;20028;-88
2022/04/24 03:36:18;;;;;;;16.67;10.15;;;9.60;99.90;;;;;;5114942;28;20030;-88
2022/04/24 03:38:43;;;;;;;13.25;10.00;;;9.60;99.90;;;;;;5096586;28;20519;-88
2022/04/24 03:41:09;;;;;;;14.40;10.38;;;9.60;99.90;;;;;;5096732;28;20031;-88
2022/04/24 03:43:35;;;;;;;14.75;9.80;;;9.70;99.90;;;;;;5096249;28;20086;-89
2022/04/24 03:46:00;;;;;;;14.57;10.18;;;9.70;99.90;;;;;;5096639;28;20466;-88
2022/04/24 03:48:26;;;;;;;18.33;11.10;;;9.70;99.90;;;;;;5096677;28;20055;-88
2022/04/24 03:50:52;;;;;;;12.57;9.80;;;9.70;99.90;;;;;;5096854;28;20355;-88
2022/04/24 03:53:18;;;;;;;12.85;9.55;;;9.70;99.90;;;;;;5096735;28;20028;-88
2022/04/24 03:55:45;;;;;;;12.93;9.35;;;9.60;99.90;;;;;;5096420;28;20034;-88
2022/04/24 03:58:11;;;;;;;14.20;9.32;;;9.60;99.90;;;;;;5096557;28;20030;-89
2022/04/24 04:00:37;;;;;;;14.18;9.38;;;9.70;99.90;;;;;;5096333;28;20118;-88
2022/04/24 04:03:03;;;;;;;15.95;11.10;;;9.80;99.90;;;;;;5114662;28;20031;-88
2022/04/24 04:05:29;;;;;;;17.10;11.07;;;9.80;99.90;;;;;;5097773;28;20050;-88
2022/04/24 04:07:55;;;;;;;15.80;9.85;;;9.80;99.90;;;;;;5100379;28;20027;-88
2022/04/24 04:10:22;;;;;;;13.10;9.85;;;9.80;99.90;;;;;;5100099;28;20027;-88
2022/04/24 04:12:51;;;;;;;12.40;9.18;;;9.90;99.90;;;;;;5118719;28;20024;-88
2022/04/24 04:15:17;;;;;;;15.77;10.60;;;9.90;99.90;;;;;;5100244;28;20063;-88
2022/04/24 04:17:42;;;;;;;16.58;10.55;;;9.90;99.90;;;;;;5100192;28;20024;-88
2022/04/24 04:20:11;;;;;;;15.15;10.30;;;9.90;99.90;;;;;;5100024;28;20027;-88
2022/04/24 04:22:50;;;;;;;15.35;10.60;;;10.00;99.90;;;;;;5100077;28;20027;-88
2022/04/24 04:25:15;;;;;;;13.77;9.40;;;10.00;99.90;;;;;;5100032;28;20020;-88
2022/04/24 04:27:41;;;;;;;17.00;10.93;;;10.10;99.90;;;;;;5100086;28;20031;-87
2022/04/24 04:30:08;;;;;;;16.75;10.95;;;10.20;99.90;;;;;;5099866;28;20036;-88
2022/04/24 04:32:35;;;;;;;18.77;12.07;;;10.30;99.90;;;;;;5099838;28;20114;-88
2022/04/24 04:35:01;;;;;;;15.57;11.15;;;10.30;99.90;;;;;;5099690;28;20076;-88
2022/04/24 04:37:26;;;;;;;18.15;10.90;;;10.30;99.90;;;;;;5099898;28;20032;-88
2022/04/24 04:39:52;;;;;;;12.68;9.52;;;10.30;99.90;;;;;;5117673;28;20450;-88
2022/04/24 04:42:17;;;;;;;13.25;9.68;;;10.30;99.90;;;;;;5099545;28;20084;-88
2022/04/24 04:44:44;;;;;;;18.33;9.93;;;10.30;99.90;;;;;;5099750;28;20024;-89
2022/04/24 04:47:09;;;;;;;13.45;9.52;;;10.40;99.90;;;;;;5099715;28;20027;-88
2022/04/24 04:49:35;;;;;;;17.40;10.13;;;10.50;99.90;;;;;;5099652;28;20023;-88
2022/04/24 04:52:00;;;;;;;15.65;9.65;;;10.50;99.90;;;;;;5099459;28;20028;-88
2022/04/24 04:54:26;;;;;;;16.92;11.02;;;10.50;99.90;;;;;;5099729;28;20028;-88
2022/04/24 04:56:52;;;;;;;16.17;9.30;;;10.50;99.90;;;;;;5099388;28;20026;-88
2022/04/24 04:59:18;;;;;;;16.13;10.07;;;10.50;99.90;;;;;;5099444;28;20347;-88
2022/04/24 05:01:44;;;;;;;14.75;10.20;;;10.50;99.90;;;;;;5099075;28;20024;-89
2022/04/24 05:04:09;;;;;;;20.20;11.15;;;10.60;99.90;;;;;;5099369;28;20118;-88
2022/04/24 05:06:37;;;;;;;18.58;10.90;;;10.50;99.90;;;;;;5099271;28;20546;-90
2022/04/24 05:09:04;;;;;;;16.15;9.55;;;10.50;99.90;;;;;;5098987;28;20022;-88
2022/04/24 05:11:30;;;;;;;13.75;9.40;;;10.60;99.90;;;;;;5099126;28;20168;-88
2022/04/24 05:13:55;;;;;;;13.40;8.77;;;10.60;99.90;;;;;;5099004;28;20027;-88
2022/04/24 05:16:21;;;;;;;14.48;9.38;;;10.70;99.90;;;;;;5116879;28;20052;-88
2022/04/24 05:18:46;;;;;;;13.38;8.90;;;10.80;99.90;;;;;;5098869;28;20072;-89
2022/04/24 05:21:12;;;;;;;16.08;9.05;;;11.10;99.90;;;;;;5099074;28;20023;-88
2022/04/24 05:23:38;;;;;;;14.95;9.10;;;11.40;99.90;;;;;;5098783;28;20038;-90
2022/04/24 05:26:03;;;;;;;13.50;8.80;;;11.60;99.90;;;;;;5099042;28;20020;-90
2022/04/24 05:28:29;;;;;;;22.13;9.32;;;11.80;99.90;;;;;;5117036;28;20040;-90
2022/04/24 05:30:54;;;;;;;14.60;8.18;;;11.90;99.90;;;;;;5098687;28;20019;-89
2022/04/24 05:33:20;;;;;;;16.10;9.35;;;11.90;99.90;;;;;;5098762;28;20544;-89
2022/04/24 05:35:48;;;;;;;18.25;9.35;;;12.00;99.90;;;;;;5116536;28;20037;-88
2022/04/24 05:38:14;;;;;;;16.80;8.80;;;12.20;99.90;;;;;;5098485;28;20026;-90
2022/04/24 05:40:40;;;;;;;15.50;8.70;;;12.10;99.90;;;;;;5098406;28;20027;-91
2022/04/24 05:43:06;;;;;;;16.85;9.05;;;11.90;99.90;;;;;;5098445;28;20023;-88
2022/04/24 05:45:32;;;;;;;17.23;9.32;;;11.90;99.90;;;;;;5098313;28;20031;-89
2022/04/24 05:47:59;;;;;;;17.90;9.57;;;11.90;99.90;;;;;;5098840;28;20520;-87
2022/04/24 05:50:25;;;;;;;18.80;9.98;;;11.90;99.90;;;;;;5098470;28;20026;-90
2022/04/24 05:52:54;;;;;;;17.23;8.77;;;11.90;99.90;;;;;;5098243;28;20027;-90
2022/04/24 05:55:20;;;;;;;19.17;9.57;;;11.80;99.90;;;;;;5098494;28;20024;-90
2022/04/24 05:57:49;;;;;;;20.52;9.90;;;11.90;99.90;;;;;;5098547;28;20115;-90
2022/04/24 06:00:16;;;;;;;17.20;8.48;;;11.90;99.90;;;;;;5098625;28;20023;-89
2022/04/24 06:02:42;;;;;;;15.55;9.27;;;11.90;99.90;;;;;;5097976;28;20026;-91
2022/04/24 06:05:10;;;;;;;16.45;9.30;;;12.10;99.90;;;;;;5097878;28;20062;-89
2022/04/24 06:07:36;;;;;;;16.05;8.85;;;12.30;99.90;;;;;;5098087;28;20020;-90
2022/04/24 06:10:03;;;;;;;14.27;8.23;;;12.40;99.90;;;;;;5097986;28;20481;-91
2022/04/24 06:12:29;;;;;;;14.45;8.60;;;12.50;99.90;;;;;;5098049;28;20024;-90
2022/04/24 06:15:04;;;;;;;14.13;8.80;;;12.50;99.90;;;;;;5097906;28;20043;-90
2022/04/24 06:17:30;;;;;;;15.68;9.07;;;12.60;99.90;;;;;;5097833;28;20047;-91
2022/04/24 06:19:56;;;;;;;13.50;8.48;;;12.60;99.90;;;;;;5097710;28;20066;-90
2022/04/24 06:22:21;;;;;;;13.13;8.20;;;12.70;99.90;;;;;;5097800;28;20027;-90
2022/04/24 06:24:49;;;;;;;11.32;7.88;;;12.70;99.90;;;;;;5097971;28;20027;-90
2022/04/24 06:27:15;;;;;;;11.70;8.43;;;12.70;99.90;;;;;;5097504;28;20015;-91
2022/04/24 06:29:41;;;;;;;13.27;7.60;;;12.70;99.90;;;;;;5096958;28;20035;-93
2022/04/24 06:32:08;;;;;;;11.70;8.07;;;12.80;99.90;;;;;;5097833;28;20020;-92
2022/04/24 06:34:34;;;;;;;9.32;7.18;;;12.90;99.90;;;;;;5097815;28;20024;-92
2022/04/24 06:36:59;;;;;;;10.35;8.32;;;12.90;99.90;;;;;;5097517;28;20030;-93
2022/04/24 06:39:25;;;;;;;8.75;6.65;;;13.00;99.90;;;;;;5097546;28;20026;-92
2022/04/24 06:41:51;;;;;;;9.52;6.97;;;13.20;99.90;;;;;;5115729;28;20467;-92
2022/04/24 06:44:16;;;;;;;11.48;7.10;;;13.30;99.90;;;;;;5097251;28;20028;-93
2022/04/24 06:46:43;;;;;;;11.55;7.05;;;13.40;99.90;;;;;;5097380;28;20347;-91
2022/04/24 06:49:09;;;;;;;11.30;6.43;;;13.60;99.90;;;;;;5097209;28;20055;-94
2022/04/24 06:51:35;;;;;;;8.43;6.57;;;13.70;99.90;;;;;;5097290;28;20023;-92
2022/04/24 06:54:01;;;;;;;9.77;6.53;;;13.80;99.90;;;;;;5097250;28;20072;-92
2022/04/24 06:56:26;;;;;;;9.07;6.60;;;13.80;99.90;;;;;;5097138;28;20035;-93
2022/04/24 06:58:52;;;;;;;12.82;7.90;;;13.90;99.90;;;;;;5096989;28;20028;-92
2022/04/24 07:01:19;;;;;;;8.55;6.72;;;14.10;99.90;;;;;;5097082;28;20032;-93
2022/04/24 07:03:45;;;;;;;9.32;6.85;;;14.30;99.90;;;;;;5097006;28;20386;-92
2022/04/24 07:06:11;;;;;;;12.82;7.72;;;14.40;99.90;;;;;;5097078;28;20019;-93
2022/04/24 07:08:37;;;;;;;10.02;7.68;;;14.50;99.90;;;;;;5097285;28;20025;-91
2022/04/24 07:11:03;;;;;;;8.85;6.47;;;14.60;99.90;;;;;;5097106;28;20023;-93
2022/04/24 07:13:29;;;;;;;10.50;7.53;;;14.70;99.90;;;;;;5096873;28;20126;-91
2022/04/24 07:15:55;;;;;;;9.23;7.32;;;14.80;99.90;;;;;;5097453;28;20035;-92
2022/04/24 07:18:21;;;;;;;9.30;7.38;;;14.80;99.90;;;;;;5096756;28;20028;-93
2022/04/24 07:20:46;;;;;;;9.52;6.95;;;14.80;99.90;;;;;;5097001;28;20023;-92
2022/04/24 07:23:12;;;;;;;10.82;8.35;;;14.80;99.90;;;;;;5097054;28;20023;-92
2022/04/24 07:25:41;;;;;;;9.98;7.35;;;14.80;99.90;;;;;;5096509;28;20020;-92
2022/04/24 07:28:14;;;;;;;10.73;7.88;;;14.80;99.90;;;;;;5114904;28;20016;-92
2022/04/24 07:30:40;;;;;;;10.18;7.25;;;14.80;99.90;;;;;;5114767;28;20039;-91
2022/04/24 07:33:06;;;;;;;7.45;6.45;;;15.00;99.70;;;;;;5096588;28;20024;-93
2022/04/24 07:35:37;;;;;;;11.85;8.10;;;15.10;99.60;;;;;;5114811;28;20092;-91
2022/04/24 07:38:03;;;;;;;11.88;8.48;;;15.10;99.90;;;;;;5114743;28;20020;-92
2022/04/24 07:40:32;;;;;;;11.23;8.40;;;15.20;99.90;;;;;;5097983;28;20051;-92
2022/04/24 07:43:00;;;;;;;10.63;7.85;;;15.30;99.60;;;;;;5118920;28;20566;-92
2022/04/24 07:45:40;;;;;;;10.35;7.00;;;15.30;98.80;;;;;;5119229;28;20084;-93
2022/04/24 07:48:08;;;;;;;10.40;7.72;;;15.40;98.20;;;;;;5101123;28;20108;-92
2022/04/24 07:50:55;;;;;;;9.90;7.82;;;15.20;98.50;;;;;;5100603;28;20031;-93
2022/04/24 07:53:21;;;;;;;9.80;6.97;;;15.00;98.70;;;;;;5100147;28;20067;-93
2022/04/24 07:55:48;;;;;;;9.77;7.38;;;14.90;99.10;;;;;;5100606;28;20028;-91
2022/04/24 07:58:15;;;;;;;10.30;7.45;;;14.90;98.90;;;;;;5118911;28;20020;-92
2022/04/24 08:00:42;;;;;;;9.25;7.15;;;15.00;99.20;;;;;;5100482;28;20024;-93
2022/04/24 08:03:13;;;;;;;13.43;10.25;;;15.20;98.80;;;;;;5100328;28;20031;-92
2022/04/24 08:05:41;;;;;;;11.20;7.50;;;15.30;98.60;;;;;;5100366;28;20418;-92
2022/04/24 08:08:14;;;;;;;8.35;6.13;;;15.40;97.90;;;;;;5100024;28;20485;-93
2022/04/24 08:10:43;;;;;;;8.85;6.88;;;15.50;97.70;;;;;;5100631;28;20027;-94
2022/04/24 08:13:09;;;;;;;7.75;6.10;;;15.70;97.50;;;;;;5100186;28;20516;-91
2022/04/24 08:15:36;;;;;;;14.35;8.18;;;15.80;96.50;;;;;;5099991;28;20061;-92
2022/04/24 08:18:04;;;;;;;7.80;6.13;;;15.90;96.90;;;;;;5100194;28;20024;-92
2022/04/24 08:20:30;;;;;;;10.23;8.95;;;15.80;96.40;;;;;;5100472;28;20031;-92
2022/04/24 08:22:59;;;;;;;9.45;7.15;;;16.00;96.00;;;;;;5100195;28;20113;-92
2022/04/24 08:25:26;;;;;;;19.45;15.05;;;16.00;96.40;;;;;;5100218;28;20016;-92
2022/04/24 08:27:53;;;;;;;16.63;12.88;;;15.90;96.20;;;;;;5100003;28;20488;-92
2022/04/24 08:30:20;;;;;;;9.27;6.63;;;16.00;95.70;;;;;;5117945;28;20067;-92
2022/04/24 08:32:47;;;;;;;10.38;8.32;;;16.00;95.00;;;;;;5099795;28;20023;-92
2022/04/24 08:35:15;;;;;;;9.55;7.50;;;15.90;95.40;;;;;;5099434;28;20037;-91
2022/04/24 08:37:42;;;;;;;9.93;7.18;;;15.90;95.60;;;;;;5099677;28;20020;-93
2022/04/24 08:40:10;;;;;;;9.13;6.80;;;15.80;95.90;;;;;;5099819;28;20020;-91
2022/04/24 08:42:35;;;;;;;8.93;7.30;;;15.80;96.20;;;;;;5099527;28;20063;-91
2022/04/24 08:45:03;;;;;;;9.20;7.20;;;15.80;96.50;;;;;;5099564;28;20054;-91
2022/04/24 08:47:29;;;;;;;8.65;7.35;;;15.70;96.40;;;;;;5117553;28;20019;-91
2022/04/24 08:50:00;;;;;;;8.48;7.35;;;15.80;96.80;;;;;;5099455;28;20114;-90
2022/04/24 08:52:27;;;;;;;;;;;15.80;96.30;;;;;;5099399;28;20028;-91
2022/04/24 08:54:53;;;;;;;10.48;7.70;;;16.00;96.60;;;;;;5099586;28;20341;-90
2022/04/24 08:57:20;;;;;;;9.90;7.47;;;16.10;96.30;;;;;;5099633;28;20119;-91
2022/04/24 08:59:46;;;;;;;9.27;6.82;;;16.30;95.50;;;;;;5117516;28;20062;-91
2022/04/24 09:02:12;;;;;;;10.07;6.97;;;16.30;95.10;;;;;;5117585;28;20034;-91
2022/04/24 09:04:39;;;;;;;8.52;6.55;;;16.30;95.60;;;;;;5099431;28;20020;-92
2022/04/24 09:07:07;;;;;;;8.93;6.32;;;16.40;95.00;;;;;;5099162;28;20386;-90
2022/04/24 09:09:44;;;;;;;8.95;6.55;;;16.50;95.00;;;;;;5117178;28;20012;-91
2022/04/24 09:12:32;;;;;;;10.77;7.20;;;16.50;94.60;;;;;;5117361;28;20094;-90
2022/04/24 09:14:59;;;;;;;7.03;6.00;;;16.60;94.40;;;;;;5099259;28;20023;-90
2022/04/24 09:17:27;;;;;;;7.15;5.70;;;16.70;93.90;;;;;;5098773;28;20024;-90
2022/04/24 09:19:54;;;;;;;8.20;6.60;;;16.70;93.80;;;;;;5117151;28;20031;-91
2022/04/24 09:22:20;;;;;;;13.65;8.80;;;16.40;93.50;;;;;;5116691;28;20023;-90
2022/04/24 09:24:59;;;;;;;8.23;6.88;;;16.20;93.80;;;;;;5098747;28;20023;-91
2022/04/24 09:27:32;;;;;;;11.82;7.10;;;16.00;94.20;;;;;;5098784;28;20106;-91
2022/04/24 09:30:03;;;;;;;8.95;6.22;;;15.90;94.70;;;;;;5116583;28;20115;-91
2022/04/24 09:32:32;;;;;;;9.07;6.15;;;16.00;95.10;;;;;;5116861;28;20024;-91
2022/04/24 09:34:58;;;;;;;7.60;5.90;;;16.20;95.00;;;;;;5098718;28;20478;-91
2022/04/24 09:37:24;;;;;;;6.47;5.63;;;16.40;93.80;;;;;;5098552;28;20147;-91
2022/04/24 09:39:52;;;;;;;7.05;5.60;;;16.50;92.90;;;;;;5098705;28;20542;-92
2022/04/24 09:42:20;;;;;;;6.65;4.50;;;16.70;92.30;;;;;;5098433;28;20111;-88
2022/04/24 09:44:46;;;;;;;6.70;5.30;;;16.90;90.20;;;;;;5116795;28;20016;-89
2022/04/24 09:47:13;;;;;;;7.03;5.38;;;16.80;88.70;;;;;;5116515;28;20028;-86
2022/04/24 09:49:46;;;;;;;6.60;5.60;;;16.60;89.70;;;;;;5098619;28;20020;-87
2022/04/24 09:52:12;;;;;;;7.65;5.95;;;16.40;90.10;;;;;;5098228;28;20023;-91
2022/04/24 09:54:44;;;;;;;8.52;6.38;;;16.50;90.80;;;;;;5098324;28;20091;-88
2022/04/24 09:57:11;;;;;;;7.93;5.53;;;16.70;90.10;;;;;;5116351;28;20011;-89
2022/04/24 09:59:42;;;;;;;6.45;5.72;;;16.80;89.80;;;;;;5116230;28;20034;-89
2022/04/24 10:02:08;;;;;;;8.60;5.35;;;16.90;90.00;;;;;;5097605;28;20045;-88
2022/04/24 10:04:35;;;;;;;7.97;5.40;;;16.90;90.00;;;;;;5097446;28;20023;-89
2022/04/24 10:07:21;;;;;;;5.70;4.75;;;17.00;88.80;;;;;;5098023;28;20043;-90
2022/04/24 10:09:47;;;;;;;6.22;5.13;;;17.30;89.60;;;;;;5097922;28;20470;-89
2022/04/24 10:12:18;;;;;;;6.72;5.50;;;17.50;86.30;;;;;;5098028;28;20409;-89
2022/04/24 10:14:46;;;;;;;5.75;4.97;;;17.50;85.80;;;;;;5097678;28;20055;-90
2022/04/24 10:17:46;;;;;;;5.75;4.85;;;17.50;84.10;;;;;;5097807;28;20484;-90
2022/04/24 10:20:25;;;;;;;6.80;5.38;;;17.30;83.00;;;;;;5097763;28;20157;-88
2022/04/24 10:22:54;;;;;;;5.43;4.50;;;17.10;80.80;;;;;;5097877;28;20406;-89
2022/04/24 10:25:35;;;;;;;6.32;5.07;;;16.90;82.40;;;;;;5098133;28;20020;-89
2022/04/24 10:28:18;;;;;;;4.93;4.43;;;16.80;82.60;;;;;;5097918;28;20016;-90
2022/04/24 10:31:00;;;;;;;5.20;4.70;;;16.80;81.80;;;;;;5097633;28;20059;-89
2022/04/24 10:33:37;;;;;;;5.78;4.43;;;16.90;82.90;;;;;;5097450;28;20023;-89
2022/04/24 10:36:05;;;;;;;5.57;4.22;;;17.00;82.50;;;;;;5097966;28;20076;-88
2022/04/24 10:38:33;;;;;;;4.20;3.78;;;17.10;83.60;;;;;;5097419;28;20474;-89
2022/04/24 10:41:07;;;;;;;4.95;3.92;;;17.40;83.00;;;;;;5115611;28;20023;-89
2022/04/24 10:43:39;;;;;;;3.80;3.40;;;17.60;81.90;;;;;;5115337;28;20400;-90
2022/04/24 10:46:26;;;;;;;4.45;3.63;;;17.80;81.80;;;;;;5097345;28;20019;-89
2022/04/24 10:48:53;;;;;;;4.82;4.32;;;18.00;80.00;;;;;;5097344;28;20023;-89
2022/04/24 10:51:32;;;;;;;7.85;3.95;;;17.90;78.40;;;;;;5097358;28;20382;-89
2022/04/24 10:54:08;;;;;;;6.10;3.70;;;17.80;79.10;;;;;;5115291;28;20019;-89
2022/04/24 10:56:35;;;;;;;4.13;3.72;;;17.70;77.90;;;;;;5096975;28;20024;-88
2022/04/24 10:59:15;;;;;;;3.55;3.30;;;17.60;78.10;;;;;;5096774;28;20024;-89
2022/04/24 11:01:43;;;;;;;5.05;3.70;;;17.80;79.50;;;;;;5097316;28;20028;-89
2022/04/24 11:04:11;;;;;;;3.40;3.08;;;17.90;77.60;;;;;;5097524;28;20031;-88
2022/04/24 11:06:37;;;;;;;4.22;3.25;;;18.10;76.90;;;;;;5097354;28;20023;-89
2022/04/24 11:09:13;;;;;;;4.72;3.25;;;18.30;75.70;;;;;;5097027;28;20026;-88
2022/04/24 11:11:49;;;;;;;3.20;2.90;;;18.40;75.10;;;;;;5097105;28;20020;-88
2022/04/24 11:14:25;;;;;;;3.17;2.88;;;18.40;73.70;;;;;;5114868;28;20382;-88
2022/04/24 11:16:59;;;;;;;3.75;3.35;;;18.20;72.60;;;;;;5114857;28;20034;-89
2022/04/24 11:19:26;;;;;;;3.53;3.22;;;18.00;74.00;;;;;;5096792;28;20023;-89
2022/04/24 11:22:03;;;;;;;3.65;3.30;;;17.90;74.20;;;;;;5096907;28;20378;-88
2022/04/24 11:24:31;;;;;;;3.70;3.40;;;17.90;73.90;;;;;;5096687;28;20432;-89
2022/04/24 11:27:03;;;;;;;3.53;3.22;;;18.10;75.50;;;;;;5114756;28;20031;-89
2022/04/24 11:29:28;;;;;;;3.38;3.08;;;18.20;75.50;;;;;;5114580;28;20039;-89
2022/04/24 11:31:55;;;;;;;3.35;3.05;;;18.40;74.80;;;;;;5114999;28;20024;-89
2022/04/24 11:34:22;;;;;;;3.15;2.78;;;18.30;73.90;;;;;;5096758;28;20023;-89
2022/04/24 11:36:50;;;;;;;2.92;2.72;;;18.30;74.10;;;;;;5114708;28;20054;-89
2022/04/24 11:39:17;;;;;;;2.80;2.50;;;18.10;72.50;;;;;;5096571;28;20062;-88
2022/04/24 11:41:43;;;;;;;4.28;3.00;;;18.10;72.90;;;;;;5096524;28;20024;-89
2022/04/24 11:52:26;;;;;;;3.40;3.13;;;18.20;73.60;;;;;;5114916;28;20031;-88
2022/04/24 11:54:53;;;;;;;4.07;3.67;;;18.40;73.40;;;;;;5096670;28;20020;-88
2022/04/24 11:57:19;;;;;;;3.63;3.33;;;18.50;72.80;;;;;;5096458;28;20023;-88
2022/04/24 11:59:55;;;;;;;3.17;2.80;;;18.70;71.90;;;;;;5096517;28;20028;-89
2022/04/24 12:02:26;;;;;;;4.38;3.97;;;18.80;70.80;;;;;;5096287;28;20023;-89
2022/04/24 12:04:52;;;;;;;3.20;2.90;;;18.80;69.70;;;;;;5096379;28;20470;-89
2022/04/24 12:07:18;;;;;;;3.28;2.97;;;18.70;69.90;;;;;;5096482;28;20134;-89
2022/04/24 12:09:44;;;;;;;4.90;3.97;;;19.20;70.50;;;;;;5114516;28;20494;-88
2022/04/24 12:12:12;;;;;;;3.25;2.95;;;20.70;70.20;;;;;;5096327;28;20027;-88
2022/04/24 12:14:39;;;;;;;3.20;2.90;;;22.70;66.10;;;;;;5096506;28;20118;-89
2022/04/24 12:17:10;;;;;;;3.50;2.83;;;24.50;60.00;;;;;;5096433;28;20023;-88
2022/04/24 12:19:36;;;;;;;2.67;2.47;;;25.70;54.60;;;;;;5114305;28;20441;-88
2022/04/24 12:22:07;;;;;;;2.80;2.60;;;27.20;54.10;;;;;;5096322;28;20026;-88
2022/04/24 12:24:47;;;;;;;2.70;2.50;;;28.70;52.20;;;;;;5096137;28;20427;-89
2022/04/24 12:27:15;;;;;;;2.90;2.70;;;29.50;47.30;;;;;;5116632;28;20020;-88
2022/04/24 12:29:48;;;;;;;3.45;2.25;;;30.20;46.10;;;;;;5099855;28;20439;-89
2022/04/24 12:32:15;;;;;;;2.58;2.38;;;30.50;45.00;;;;;;5118150;28;20075;-89
2022/04/24 12:34:43;;;;;;;2.45;2.28;;;31.30;46.30;;;;;;5100031;28;20080;-89
2022/04/24 12:37:09;;;;;;;3.10;2.80;;;32.20;45.60;;;;;;5099968;28;20024;-88
2022/04/24 12:39:35;;;;;;;2.50;2.40;;;32.60;44.10;;;;;;5118137;28;20024;-88
2022/04/24 12:42:16;;;;;;;2.50;2.30;;;33.20;43.70;;;;;;5099705;28;20092;-88
2022/04/24 12:44:42;;;;;;;2.42;2.22;;;33.90;43.40;;;;;;5099653;28;20028;-89
2022/04/24 12:47:08;;;;;;;2.80;2.60;;;34.20;41.70;;;;;;5099736;28;20055;-89
2022/04/24 12:49:34;;;;;;;2.15;2.05;;;34.20;41.70;;;;;;5099726;28;20020;-89
2022/04/24 12:52:00;;;;;;;2.70;2.50;;;34.80;42.10;;;;;;5117721;28;20478;-89